Latest Weather Observations for Miles

IDQ60801

Issued at 9:02 pm EST Wednesday 25 May 2016 (issued every 30 minutes, with the page automatically refreshed every 10 minutes)

About weather observations | Map of weather stations | Latest weather observations for QLD | Other Formats
Station Details ID: 042112 Name: MILES CONSTANCE STREET Lat: -26.66 Lon: 150.18 Height: 304.8 m
Data from the previous 72 hours. | See also: Recent months at Miles
Date/Time
EST
Temp
°C
App
Temp
°C
Dew
Point
Rel
Hum
%
Delta-T
°C
Wind Press
QNH
hPa
Press
MSL
hPa
Rain
since 9 am
mm
Dir
 
Spd
km/h
Gust
km/h
Spd
kts
Gust
kts
25/09:00pm 8.3 6.4 0.7 59 3.1 CALM 0 0 0 0 1017.8 1017.3 0.0
25/08:30pm 9.1 7.2 0.3 54 3.6 CALM 0 0 0 0 1017.9 - 0.0
25/08:00pm 9.9 7.9 0.1 50 4.0 CALM 0 0 0 0 1017.6 - 0.0
25/07:30pm 10.9 9.1 1.5 52 4.0 CALM 0 0 0 0 1017.4 - 0.0
25/07:00pm 12.0 10.5 2.8 53 4.1 CALM 0 0 0 0 1017.4 - 0.0
25/06:30pm 13.7 12.0 1.9 44 5.2 CALM 0 0 0 0 1017.0 - 0.0
25/06:00pm 15.4 13.9 3.0 43 5.7 CALM 0 0 0 0 1016.6 1016.2 0.0
25/05:30pm 18.0 16.4 2.2 34 7.3 CALM 0 0 0 0 1016.4 - 0.0
25/05:00pm 20.6 18.9 1.7 28 8.8 CALM 0 0 0 0 1016.2 - 0.0
25/04:30pm 22.7 19.9 -2.9 18 11.1 SSW 2 7 1 4 1016.2 - 0.0
25/04:00pm 23.9 20.9 -5.1 14 12.2 WSW 2 7 1 4 1016.2 - 0.0
25/03:30pm 25.4 22.8 -4.6 13 12.9 CALM 0 6 0 3 1016.2 - 0.0
25/03:00pm 24.9 21.5 -5.5 13 12.8 W 4 11 2 6 1016.2 1015.8 0.0
25/02:30pm 24.5 20.7 -5.6 13 12.6 SW 6 17 3 9 1016.5 - 0.0
25/02:00pm 24.0 19.8 -7.7 11 12.7 SW 7 13 4 7 1016.8 - 0.0
25/01:30pm 23.6 20.4 -3.9 16 11.8 SSW 4 9 2 5 1017.1 - 0.0
25/01:00pm 23.3 19.1 -3.8 16 11.6 WSW 9 17 5 9 1017.9 - 0.0
25/12:30pm 23.0 19.5 -3.1 17 11.3 SSW 6 11 3 6 1018.4 - 0.0
25/12:00pm 21.1 18.7 -0.2 24 9.6 NNW 2 7 1 4 1018.9 1018.5 0.0
25/11:30am 21.0 17.5 -1.2 22 9.8 SSE 7 28 4 15 1019.5 - 0.0
25/11:00am 18.7 16.3 -0.1 28 8.3 W 2 7 1 4 1020.1 - 0.0
25/10:30am 17.6 14.6 1.1 33 7.4 S 6 11 3 6 1020.6 - 0.0
25/10:00am 16.8 14.3 1.7 36 6.8 S 4 9 2 5 1020.9 - 0.0
25/09:30am 14.9 12.0 2.8 44 5.5 SSE 7 11 4 6 1020.7 - 0.0
25/09:00am 13.1 10.8 2.5 48 4.7 S 4 9 2 5 1020.9 1020.4 0.0
25/08:30am 10.2 8.3 0.5 51 4.0 CALM 0 0 0 0 1020.6 - 0.0
25/08:00am 7.8 5.8 -0.3 56 3.2 CALM 0 0 0 0 1020.6 - 0.0
25/07:30am 3.3 1.0 -2.0 68 1.9 CALM 0 0 0 0 1020.5 - 0.0
25/07:00am 0.6 - - - - CALM 0 0 0 0 1020.3 - 0.0
25/06:30am 0.6 - - - - CALM 0 0 0 0 1020.0 - 0.0
25/06:00am 0.8 - - - - CALM 0 0 0 0 1020.0 1019.6 0.0
25/05:30am 1.3 - - - - CALM 0 0 0 0 1019.9 - 0.0
25/05:00am 1.6 - - - - N 6 7 3 4 1020.0 - 0.0
25/04:30am 2.0 -0.2 -1.3 79 1.2 CALM 0 0 0 0 1020.1 - 0.0
25/04:00am 2.5 0.5 -0.2 82 1.0 CALM 0 0 0 0 1020.1 - 0.0
25/03:30am 2.8 0.7 -0.7 78 1.3 CALM 0 0 0 0 1020.4 - 0.0
25/03:00am 3.0 0.8 -1.7 71 1.7 CALM 0 0 0 0 1020.4 1020.0 0.0
25/02:30am 3.7 1.8 0.3 78 1.3 CALM 0 0 0 0 1020.4 - 0.0
25/02:00am 4.4 2.3 -0.6 70 1.9 CALM 0 0 0 0 1020.3 - 0.0
25/01:30am 4.8 2.7 -0.7 67 2.1 CALM 0 0 0 0 1020.5 - 0.0
25/01:00am 5.5 3.4 -0.5 65 2.3 CALM 0 0 0 0 1020.7 - 0.0
25/12:30am 6.7 4.8 0.4 64 2.5 CALM 0 0 0 0 1020.9 - 0.0
25/12:00am 7.3 5.3 0.0 60 2.9 CALM 0 0 0 0 1020.9 1020.4 0.0
 
Date/Time
EST
Temp
°C
App
Temp
°C
Dew
Point
Rel
Hum
%
Delta-T
°C
Wind Press
QNH
hPa
Press
MSL
hPa
Rain
since 9 am
mm
Dir
 
Spd
km/h
Gust
km/h
Spd
kts
Gust
kts
24/11:30pm 7.1 5.0 -0.6 58 3.0 CALM 0 0 0 0 1021.0 - 0.0
24/11:00pm 6.9 4.7 -1.5 55 3.2 CALM 0 0 0 0 1021.3 - 0.0
24/10:30pm 6.6 4.5 -0.6 60 2.8 CALM 0 0 0 0 1021.0 - 0.0
24/10:00pm 7.0 5.0 -0.4 59 2.9 CALM 0 0 0 0 1021.0 - 0.0
24/09:30pm 7.9 5.6 -2.1 49 3.8 CALM 0 0 0 0 1021.0 - 0.0
24/09:00pm 9.2 7.1 -0.9 49 4.0 CALM 0 0 0 0 1021.1 1020.6 0.0
24/08:30pm 9.2 7.1 -0.6 50 3.9 CALM 0 0 0 0 1020.9 - 0.0
24/08:00pm 10.0 8.0 -0.4 48 4.2 CALM 0 0 0 0 1020.7 - 0.0
24/07:30pm 10.9 8.9 0.0 47 4.5 CALM 0 0 0 0 1020.4 - 0.0
24/07:00pm 11.9 10.1 1.1 47 4.6 CALM 0 0 0 0 1020.3 - 0.0
24/06:30pm 14.0 12.2 1.4 42 5.5 CALM 0 0 0 0 1020.1 - 0.0
24/06:00pm 16.4 14.3 -0.6 31 7.3 CALM 0 0 0 0 1019.8 1019.4 0.0
24/05:30pm 19.1 15.2 -6.1 17 9.9 SSW 6 9 3 5 1019.5 - 0.0
24/05:00pm 20.9 16.4 -11.9 10 11.7 SSW 7 15 4 8 1019.0 - 0.0
24/04:30pm 22.0 16.2 -14.0 8 12.5 SSW 13 20 7 11 1018.9 - 0.0
24/04:00pm 22.7 16.9 -14.5 7 12.9 SSW 13 20 7 11 1018.4 - 0.0
24/03:30pm 23.7 17.8 -16.5 6 13.6 SSW 13 26 7 14 1018.3 - 0.0
24/03:00pm 23.5 16.8 -17.7 5 13.6 SSW 17 30 9 16 1018.3 1017.8 0.0
24/02:30pm 23.5 16.3 -15.4 6 13.4 S 20 24 11 13 1018.4 - 0.0
24/02:00pm 23.2 17.1 -12.2 8 12.9 SW 15 22 8 12 1018.5 - 0.0
24/01:30pm 23.0 17.5 -9.9 10 12.5 SW 13 24 7 13 1018.7 - 0.0
24/01:00pm 22.4 17.7 -8.6 12 12.0 S 9 17 5 9 1019.0 - 0.0
24/12:30pm 21.6 16.8 -6.3 15 11.2 S 11 19 6 10 1019.4 - 0.0
24/12:00pm 20.9 16.6 -5.1 17 10.6 SW 9 15 5 8 1020.0 1019.6 0.0
24/11:30am 20.4 15.8 -4.4 18 10.2 SSW 11 20 6 11 1020.6 - 0.0
24/11:00am 19.2 14.7 -3.5 21 9.4 S 11 19 6 10 1021.1 - 0.0
24/10:30am 18.9 14.6 -2.0 24 8.9 S 11 20 6 11 1021.6 - 0.0
24/10:00am 17.5 13.4 -0.1 30 7.7 SSW 11 17 6 9 1021.9 - 0.0
24/09:30am 16.7 12.3 0.2 32 7.2 S 13 19 7 10 1022.1 - 0.0
24/09:00am 15.7 11.0 1.2 37 6.4 S 15 24 8 13 1022.1 1021.7 0.0
24/08:30am 14.9 11.2 2.2 42 5.7 SSW 11 20 6 11 1022.1 - 0.0
24/08:00am 14.2 10.4 2.0 43 5.4 SSW 11 17 6 9 1021.8 - 0.0
24/07:30am 13.5 10.2 2.5 47 4.9 SSW 9 15 5 8 1021.4 - 0.0
24/07:00am 12.9 9.7 2.8 50 4.5 SSW 9 13 5 7 1020.9 - 0.0
24/06:30am 13.1 9.9 3.1 50 4.5 SSW 9 13 5 7 1020.5 - 0.0
24/06:00am 13.4 10.3 3.8 52 4.4 SSW 9 13 5 7 1020.1 1019.7 0.0
24/05:30am 13.7 11.2 4.5 54 4.3 SSW 7 9 4 5 1019.8 - 0.0
24/05:00am 14.3 11.8 5.0 53 4.4 SW 7 11 4 6 1019.8 - 0.0
24/04:30am 15.2 12.8 5.4 52 4.7 SSW 7 15 4 8 1019.7 - 0.0
24/04:00am 16.0 12.8 5.0 48 5.3 SSW 11 17 6 9 1019.7 - 0.0
24/03:30am 16.0 14.3 8.2 60 4.0 SSW 7 13 4 7 1019.7 - 0.0
24/03:00am 16.0 14.7 9.1 63 3.6 SSW 6 9 3 5 1019.7 1019.3 0.0
24/02:30am 15.7 14.4 9.2 65 3.4 SSW 6 9 3 5 1019.6 - 0.0
24/02:00am 15.2 15.3 10.1 71 2.7 CALM 0 0 0 0 1019.6 - 0.0
24/01:30am 16.2 16.3 10.0 66 3.3 CALM 0 0 0 0 1019.6 - 0.0
24/01:00am 18.1 18.0 9.5 57 4.6 CALM 0 6 0 3 1019.7 - 0.0
24/12:30am 19.3 17.3 8.7 50 5.6 SSW 9 15 5 8 1019.7 - 0.0
24/12:00am 17.2 15.2 8.8 57 4.4 SSW 9 11 5 6 1019.6 1019.2 0.0
 
Date/Time
EST
Temp
°C
App
Temp
°C
Dew
Point
Rel
Hum
%
Delta-T
°C
Wind Press
QNH
hPa
Press
MSL
hPa
Rain
since 9 am
mm
Dir
 
Spd
km/h
Gust
km/h
Spd
kts
Gust
kts
23/11:30pm 14.3 14.2 9.5 73 2.5 CALM 0 0 0 0 1019.0 - 0.0
23/11:00pm 14.6 14.4 9.2 70 2.8 CALM 0 0 0 0 1019.0 - 0.0
23/10:30pm 15.0 14.8 9.2 68 3.0 CALM 0 0 0 0 1019.1 - 0.0
23/10:00pm 15.1 15.0 9.3 68 3.0 CALM 0 0 0 0 1019.1 - 0.0
23/09:30pm 15.5 15.3 9.2 66 3.3 CALM 0 0 0 0 1019.0 - 0.0
23/09:00pm 15.8 15.8 9.7 67 3.2 CALM 0 0 0 0 1019.0 1018.6 0.0
23/08:30pm 16.1 16.1 9.9 66 3.3 CALM 0 0 0 0 1018.9 - 0.0
23/08:00pm 16.8 16.8 9.8 63 3.7 CALM 0 0 0 0 1018.9 - 0.0
23/07:30pm 17.6 17.7 10.2 62 4.0 CALM 0 0 0 0 1018.8 - 0.0
23/07:00pm 18.5 18.6 10.2 58 4.5 CALM 0 0 0 0 1018.6 - 0.0
23/06:30pm 19.9 20.0 10.2 53 5.3 CALM 0 0 0 0 1018.2 - 0.0
23/06:00pm 21.5 21.7 10.7 50 6.0 CALM 0 0 0 0 1018.0 1017.5 0.0
23/05:30pm 23.2 23.4 10.7 45 7.0 CALM 0 0 0 0 1017.9 - 0.0
23/05:00pm 25.4 23.8 8.0 33 9.4 SSW 6 11 3 6 1017.6 - 0.0
23/04:30pm 26.4 24.4 7.2 29 10.3 SW 7 11 4 6 1017.1 - 0.0
23/04:00pm 26.7 25.0 8.2 31 10.1 WSW 7 13 4 7 1017.1 - 0.0
23/03:30pm 27.4 25.7 8.3 30 10.5 S 7 17 4 9 1017.0 - 0.0
23/03:00pm 27.0 24.4 7.9 30 10.4 S 11 17 6 9 1017.0 1016.6 0.0
23/02:00pm 27.7 25.9 9.5 32 10.2 WNW 9 15 5 8 1017.5 - 0.0
23/01:30pm 27.4 25.2 9.3 32 10.1 W 11 20 6 11 1017.9 - 0.0
23/01:00pm 27.4 25.7 9.8 33 9.9 W 9 20 5 11 1018.3 - 0.0
23/12:30pm 26.3 23.9 9.9 35 9.2 WSW 13 20 7 11 1018.8 - 0.0
23/12:00pm 26.6 25.2 10.8 37 9.0 W 9 17 5 9 1019.5 1019.1 0.0
23/11:30am 26.5 25.9 12.3 41 8.3 NNW 7 13 4 7 1020.0 - 0.0
23/11:00am 25.5 25.1 12.5 44 7.6 N 6 15 3 8 1020.6 - 0.0
23/10:30am 24.6 23.8 13.0 48 6.8 N 9 15 5 8 1021.1 - 0.0
23/10:00am 22.9 21.5 13.3 54 5.6 N 13 20 7 11 1021.6 - 0.0
23/09:30am 21.6 21.1 13.7 60 4.6 N 9 15 5 8 1021.9 - 0.0
23/09:00am 19.9 18.9 13.3 65 3.8 N 11 15 6 8 1022.0 1021.6 0.0
23/08:30am 18.1 17.3 13.0 72 2.9 N 9 13 5 7 1022.2 - 0.0
23/08:00am 15.9 15.5 12.3 79 2.0 N 6 9 3 5 1022.2 - 0.0
23/07:30am 13.3 13.9 11.8 91 0.8 CALM 0 0 0 0 1022.2 - 0.0
23/07:00am 11.0 11.1 10.2 95 0.4 CALM 0 0 0 0 1022.1 - 0.0
23/06:30am 11.2 11.4 10.4 95 0.4 CALM 0 0 0 0 1021.8 - 0.0
23/06:00am 11.5 11.7 10.5 94 0.5 CALM 0 0 0 0 1021.7 1021.3 0.0
23/05:30am 12.0 12.3 10.9 93 0.6 CALM 0 0 0 0 1021.6 - 0.0
23/05:00am 12.9 13.5 11.8 93 0.6 CALM 0 0 0 0 1021.4 - 0.0
23/04:30am 13.0 13.5 11.5 91 0.8 CALM 0 0 0 0 1021.1 - 0.0
23/04:00am 13.4 13.9 11.5 88 1.0 CALM 0 0 0 0 1021.1 - 0.0
23/03:30am 14.4 13.8 11.8 84 1.4 N 6 9 3 5 1021.2 - 0.0
23/03:00am 14.6 13.8 11.7 83 1.6 N 7 9 4 5 1021.2 1020.7 0.0
23/02:30am 14.0 13.2 11.2 83 1.5 N 6 9 3 5 1021.4 - 0.0
23/02:00am 13.9 12.8 10.7 81 1.7 N 7 9 4 5 1021.6 - 0.0
23/01:30am 13.6 12.4 10.4 81 1.7 N 7 9 4 5 1021.5 - 0.0
23/01:00am 13.4 12.0 9.7 78 1.9 N 7 9 4 5 1021.6 - 0.0
23/12:30am 13.2 12.4 9.5 78 1.9 N 4 7 2 4 1021.7 - 0.0
23/12:00am 13.3 12.1 9.6 78 1.9 N 6 7 3 4 1021.7 1021.3 0.0
 
Date/Time
EST
Temp
°C
App
Temp
°C
Dew
Point
Rel
Hum
%
Delta-T
°C
Wind Press
QNH
hPa
Press
MSL
hPa
Rain
since 9 am
mm
Dir
 
Spd
km/h
Gust
km/h
Spd
kts
Gust
kts
22/11:30pm 13.1 11.8 9.2 77 2.0 N 6 7 3 4 1022.1 - 0.0
22/11:00pm 12.8 12.6 9.1 78 1.9 CALM 0 0 0 0 1022.3 - 0.0
22/10:30pm 13.1 12.9 9.0 76 2.1 CALM 0 0 0 0 1022.3 - 0.0
22/10:00pm 13.2 13.1 9.5 78 1.9 CALM 0 0 0 0 1022.2 - 0.0
22/09:30pm 13.6 13.6 9.8 78 2.0 CALM 0 0 0 0 1022.2 - 0.0

Other Formats:

Comma delimited format used in spreadsheet applications
http://www.bom.gov.au/fwo/IDQ60801/IDQ60801.95529.axf

JavaScript Object Notation format (JSON) in row-major order
http://www.bom.gov.au/fwo/IDQ60801/IDQ60801.95529.json